createdAt,value
2024-03-10T00:00:15.765Z,21.70
2024-03-10T00:00:48.528Z,20.53
2024-03-10T00:01:20.552Z,20.23
2024-03-10T00:01:57.509Z,22.13
2024-03-10T00:02:29.808Z,22.27
2024-03-10T00:03:05.456Z,21.67
2024-03-10T00:03:38.220Z,21.63
2024-03-10T00:04:10.131Z,22.10
2024-03-10T00:04:42.602Z,21.43
2024-03-10T00:05:14.968Z,20.70
2024-03-10T00:05:47.133Z,21.77
2024-03-10T00:06:19.734Z,21.40
2024-03-10T00:06:51.758Z,21.60
2024-03-10T00:07:23.772Z,22.90
2024-03-10T00:07:56.412Z,21.87
2024-03-10T00:08:28.385Z,21.93
2024-03-10T00:09:01.237Z,21.43
2024-03-10T00:09:33.273Z,22.07
2024-03-10T00:10:05.471Z,22.07
2024-03-10T00:10:42.797Z,22.10
2024-03-10T00:11:18.974Z,22.13
2024-03-10T00:11:51.190Z,21.63
2024-03-10T00:12:23.486Z,21.67
2024-03-10T00:12:55.593Z,22.03
2024-03-10T00:13:27.506Z,22.07
2024-03-10T00:13:59.488Z,21.63
2024-03-10T00:14:31.491Z,21.27
2024-03-10T00:15:05.252Z,21.63
2024-03-10T00:15:39.076Z,21.90
2024-03-10T00:16:11.098Z,22.10
2024-03-10T00:16:43.460Z,21.73
2024-03-10T00:17:17.015Z,21.50
2024-03-10T00:17:49.177Z,21.67
2024-03-10T00:18:21.274Z,21.07
2024-03-10T00:18:53.631Z,22.10
2024-03-10T00:19:26.635Z,21.67
2024-03-10T00:19:58.723Z,22.90
2024-03-10T00:20:31.258Z,22.47
2024-03-10T00:21:04.005Z,21.53
2024-03-10T00:21:36.034Z,21.80
2024-03-10T00:22:08.057Z,21.20
2024-03-10T00:22:45.286Z,21.70
2024-03-10T00:23:18.979Z,20.90
2024-03-10T00:23:50.973Z,21.33
2024-03-10T00:24:23.005Z,21.37
2024-03-10T00:24:54.962Z,21.47
2024-03-10T00:25:29.530Z,21.73
2024-03-10T00:26:01.610Z,21.13
2024-03-10T00:26:36.919Z,20.33
2024-03-10T00:27:08.992Z,20.67
2024-03-10T00:27:40.919Z,20.93
2024-03-10T00:28:12.870Z,20.60
2024-03-10T00:28:45.803Z,21.23
2024-03-10T00:29:17.811Z,20.57
2024-03-10T00:29:49.780Z,20.80
2024-03-10T00:30:21.769Z,20.93
2024-03-10T00:30:53.959Z,21.20
2024-03-10T00:31:25.907Z,21.83
2024-03-10T00:31:57.865Z,21.27
2024-03-10T00:32:30.091Z,22.03
2024-03-10T00:33:02.077Z,21.60
2024-03-10T00:33:35.044Z,22.33
2024-03-10T00:34:07.059Z,21.57
2024-03-10T00:34:39.040Z,22.40
2024-03-10T00:35:11.889Z,21.43
2024-03-10T00:35:44.789Z,21.70
2024-03-10T00:36:19.992Z,22.77
2024-03-10T00:36:51.965Z,21.93
2024-03-10T00:37:23.895Z,20.80
2024-03-10T00:37:55.921Z,22.20
2024-03-10T00:38:30.554Z,22.20
2024-03-10T00:39:02.528Z,23.27
2024-03-10T00:39:35.348Z,22.57
2024-03-10T00:40:09.026Z,23.00
2024-03-10T00:40:41.164Z,22.27
2024-03-10T00:41:13.353Z,22.00
2024-03-10T00:41:45.986Z,21.27
2024-03-10T00:42:18.243Z,22.90
2024-03-10T00:42:50.196Z,23.23
2024-03-10T00:43:22.355Z,22.70
2024-03-10T00:43:54.398Z,22.60
2024-03-10T00:44:26.395Z,23.40
2024-03-10T00:45:01.564Z,22.33
2024-03-10T00:45:33.830Z,23.30
2024-03-10T00:46:05.762Z,23.07
2024-03-10T00:46:38.168Z,22.70
2024-03-10T00:47:12.062Z,23.47
2024-03-10T00:47:44.565Z,23.67
2024-03-10T00:48:16.907Z,23.80
2024-03-10T00:48:49.893Z,24.00
2024-03-10T00:49:21.814Z,24.63
2024-03-10T00:49:54.209Z,24.50
2024-03-10T00:50:26.220Z,23.13
2024-03-10T00:50:58.175Z,23.70
2024-03-10T00:51:30.082Z,23.97
2024-03-10T00:52:02.054Z,23.30
2024-03-10T00:52:34.162Z,22.47
2024-03-10T00:53:06.809Z,25.07
2024-03-10T00:53:38.775Z,24.73
2024-03-10T00:54:13.841Z,23.93
2024-03-10T00:54:45.817Z,25.13
2024-03-10T00:55:17.963Z,24.63
2024-03-10T00:55:49.963Z,24.97
2024-03-10T00:56:21.985Z,25.40
2024-03-10T00:56:54.148Z,24.47
2024-03-10T00:57:26.325Z,24.00
2024-03-10T00:57:58.254Z,23.60
2024-03-10T00:58:30.183Z,23.90
2024-03-10T00:59:02.114Z,25.17
2024-03-10T00:59:34.056Z,24.27
2024-03-10T01:00:10.375Z,25.10
2024-03-10T01:00:42.637Z,25.60
2024-03-10T01:01:14.555Z,24.77
2024-03-10T01:01:46.533Z,25.03
2024-03-10T01:02:18.743Z,24.23
2024-03-10T01:02:51.858Z,24.40
2024-03-10T01:03:24.167Z,24.97
2024-03-10T01:03:56.342Z,24.60
2024-03-10T01:04:29.434Z,24.97
2024-03-10T01:05:01.400Z,24.57
2024-03-10T01:05:33.437Z,25.70
2024-03-10T01:06:05.708Z,24.97
2024-03-10T01:06:38.295Z,25.13
2024-03-10T01:07:10.342Z,24.83
2024-03-10T01:07:42.386Z,25.20
2024-03-10T01:08:14.974Z,25.97
2024-03-10T01:08:46.943Z,25.87
2024-03-10T01:09:21.550Z,24.23
2024-03-10T01:09:53.454Z,24.57
2024-03-10T01:10:25.384Z,24.87
2024-03-10T01:10:57.345Z,25.07
2024-03-10T01:11:29.432Z,24.17
2024-03-10T01:12:01.484Z,25.53
2024-03-10T01:12:34.865Z,26.03
2024-03-10T01:13:08.681Z,25.10
2024-03-10T01:13:40.614Z,26.33
2024-03-10T01:14:12.722Z,25.70
2024-03-10T01:14:44.646Z,24.20
2024-03-10T01:15:16.622Z,25.17
2024-03-10T01:15:48.733Z,24.10
2024-03-10T01:16:21.095Z,24.90
2024-03-10T01:16:53.267Z,24.97
2024-03-10T01:17:26.561Z,27.07
2024-03-10T01:17:59.072Z,24.57
2024-03-10T01:18:31.349Z,25.20
2024-03-10T01:19:03.288Z,26.43
2024-03-10T01:19:36.811Z,25.40
2024-03-10T01:20:09.694Z,25.20
2024-03-10T01:20:41.669Z,24.60
2024-03-10T01:21:13.647Z,25.23
2024-03-10T01:21:49.136Z,25.70
2024-03-10T01:22:21.140Z,24.77
2024-03-10T01:22:53.291Z,24.70
2024-03-10T01:23:25.321Z,24.53
2024-03-10T01:23:57.283Z,24.77
2024-03-10T01:24:29.188Z,24.87
2024-03-10T01:25:01.815Z,25.07
2024-03-10T01:25:33.961Z,25.73
2024-03-10T01:26:06.416Z,26.37
2024-03-10T01:26:38.380Z,26.53
2024-03-10T01:27:10.319Z,24.53
2024-03-10T01:27:45.144Z,24.70
2024-03-10T01:28:17.057Z,24.87
2024-03-10T01:28:49.042Z,25.60
2024-03-10T01:29:23.830Z,25.87
2024-03-10T01:29:55.960Z,25.30
2024-03-10T01:30:27.881Z,26.33
2024-03-10T01:30:59.835Z,25.03
2024-03-10T01:31:32.039Z,25.83
2024-03-10T01:32:04.771Z,24.97
2024-03-10T01:32:36.849Z,25.60
2024-03-10T01:33:09.287Z,26.23
2024-03-10T01:33:41.264Z,24.47
2024-03-10T01:34:13.922Z,26.00
2024-03-10T01:34:45.953Z,24.30
2024-03-10T01:35:18.057Z,24.67
2024-03-10T01:35:50.024Z,25.43
2024-03-10T01:36:22.383Z,24.37
2024-03-10T01:36:54.309Z,25.47
2024-03-10T01:37:26.234Z,25.23
2024-03-10T01:37:58.184Z,24.47
2024-03-10T01:38:31.372Z,24.90
2024-03-10T01:39:03.305Z,25.63
2024-03-10T01:39:35.254Z,25.53
2024-03-10T01:40:07.534Z,25.23
2024-03-10T01:40:39.472Z,24.93
2024-03-10T01:41:13.327Z,24.53
2024-03-10T01:41:46.048Z,26.23
2024-03-10T01:42:19.180Z,25.40
2024-03-10T01:42:57.884Z,26.37
2024-03-10T01:43:29.821Z,24.70
2024-03-10T01:44:01.766Z,24.97
2024-03-10T01:44:33.789Z,24.23
2024-03-10T01:45:06.266Z,24.77
2024-03-10T01:45:38.194Z,25.33
2024-03-10T01:46:10.402Z,24.97
2024-03-10T01:46:42.848Z,25.07
2024-03-10T01:47:14.951Z,26.43
2024-03-10T01:47:48.827Z,26.53
2024-03-10T01:48:21.030Z,25.00
2024-03-10T01:48:53.360Z,26.10
2024-03-10T01:49:25.309Z,24.83
2024-03-10T01:49:57.274Z,25.40
2024-03-10T01:50:29.851Z,26.17
2024-03-10T01:51:02.239Z,25.60
2024-03-10T01:51:34.215Z,25.07
2024-03-10T01:52:06.787Z,25.10
2024-03-10T01:52:39.158Z,23.87
2024-03-10T01:53:11.233Z,24.03
2024-03-10T01:53:43.937Z,24.83
2024-03-10T01:54:18.639Z,25.67
2024-03-10T01:54:51.457Z,25.03
2024-03-10T01:55:23.548Z,24.90
2024-03-10T01:55:55.845Z,22.87
2024-03-10T01:56:27.994Z,23.53
2024-03-10T01:57:00.284Z,25.40
2024-03-10T01:57:32.486Z,24.20
2024-03-10T01:58:04.659Z,24.10
2024-03-10T01:58:38.234Z,25.07
2024-03-10T01:59:11.629Z,25.50
2024-03-10T01:59:43.639Z,24.67
2024-03-10T02:00:15.873Z,23.90
2024-03-10T02:00:48.814Z,24.63
2024-03-10T02:01:22.771Z,24.17
2024-03-10T02:01:55.649Z,24.57
2024-03-10T02:02:27.986Z,23.70
2024-03-10T02:02:59.968Z,24.53
2024-03-10T02:03:33.058Z,22.90
2024-03-10T02:04:10.085Z,24.20
2024-03-10T02:04:41.994Z,24.93
2024-03-10T02:05:15.171Z,24.67
2024-03-10T02:05:49.932Z,24.70
2024-03-10T02:06:22.484Z,23.17
2024-03-10T02:06:55.450Z,24.30
2024-03-10T02:07:27.380Z,24.57
2024-03-10T02:07:59.591Z,24.60
2024-03-10T02:08:31.595Z,24.13
2024-03-10T02:09:04.750Z,23.47
2024-03-10T02:09:38.966Z,23.77
2024-03-10T02:10:10.976Z,24.80
2024-03-10T02:10:48.061Z,24.67
2024-03-10T02:11:21.635Z,23.43
2024-03-10T02:11:54.092Z,23.43
2024-03-10T02:12:26.110Z,24.90
2024-03-10T02:12:58.160Z,24.17
2024-03-10T02:13:30.082Z,23.67
2024-03-10T02:14:02.035Z,24.57
2024-03-10T02:14:34.062Z,23.87
2024-03-10T02:15:08.067Z,24.10
2024-03-10T02:15:40.230Z,23.60
2024-03-10T02:16:12.199Z,23.67
2024-03-10T02:16:44.490Z,23.83
2024-03-10T02:17:16.484Z,23.73
2024-03-10T02:17:49.660Z,22.50
2024-03-10T02:18:21.964Z,24.60
2024-03-10T02:18:54.015Z,24.10
2024-03-10T02:19:25.990Z,24.73
2024-03-10T02:19:58.746Z,25.30
2024-03-10T02:20:33.433Z,23.83
2024-03-10T02:21:08.184Z,23.37
2024-03-10T02:21:40.114Z,23.60
2024-03-10T02:22:12.174Z,24.33
2024-03-10T02:22:45.127Z,24.67
2024-03-10T02:23:18.275Z,25.67
2024-03-10T02:24:12.704Z,24.87
2024-03-10T02:24:48.114Z,23.77
2024-03-10T02:25:25.248Z,25.33
2024-03-10T02:26:01.011Z,23.53
2024-03-10T02:26:38.830Z,24.03
2024-03-10T02:27:17.108Z,24.27
2024-03-10T02:27:51.495Z,24.80
2024-03-10T02:28:35.953Z,24.63
2024-03-10T02:29:19.678Z,25.57
2024-03-10T02:30:21.394Z,24.50
2024-03-10T02:30:59.136Z,26.00
2024-03-10T02:31:49.812Z,25.10
2024-03-10T02:32:40.346Z,25.53
2024-03-10T02:33:36.757Z,26.27
2024-03-10T02:34:27.489Z,24.60
2024-03-10T02:35:18.122Z,24.93
2024-03-10T02:36:08.473Z,25.00
2024-03-10T02:36:59.177Z,25.63
2024-03-10T02:37:49.667Z,25.00
2024-03-10T02:38:40.140Z,26.20
2024-03-10T02:39:30.824Z,25.80
2024-03-10T02:40:21.296Z,26.00
2024-03-10T02:41:11.927Z,26.87
2024-03-10T02:42:13.181Z,24.90
2024-03-10T02:43:03.965Z,25.43
2024-03-10T02:43:54.641Z,25.80
2024-03-10T02:44:45.382Z,25.90
2024-03-10T02:45:35.771Z,25.13
2024-03-10T02:46:26.426Z,26.10
2024-03-10T02:47:14.098Z,25.63
2024-03-10T02:47:46.314Z,26.20
2024-03-10T02:48:18.737Z,26.80
2024-03-10T02:48:50.700Z,27.03
2024-03-10T02:49:22.708Z,26.10
2024-03-10T02:49:54.623Z,25.53
2024-03-10T02:50:27.187Z,25.67
2024-03-10T02:50:59.218Z,25.67
2024-03-10T02:51:31.152Z,25.83
2024-03-10T02:52:03.069Z,25.50
2024-03-10T02:52:35.582Z,24.80
2024-03-10T02:53:07.678Z,25.83
2024-03-10T02:53:39.633Z,25.97
2024-03-10T02:54:12.123Z,26.43
2024-03-10T02:54:44.108Z,26.73
2024-03-10T02:55:16.031Z,26.37
2024-03-10T02:55:48.131Z,26.17
2024-03-10T02:56:26.547Z,25.20
2024-03-10T02:56:58.992Z,26.23
2024-03-10T02:57:34.460Z,26.50
2024-03-10T02:58:07.563Z,26.47
2024-03-10T02:58:40.406Z,26.97
2024-03-10T02:59:12.411Z,26.73
2024-03-10T02:59:44.426Z,26.10
2024-03-10T03:00:17.343Z,27.33
2024-03-10T03:00:49.588Z,26.40
2024-03-10T03:01:22.699Z,27.03
2024-03-10T03:01:56.091Z,27.67
2024-03-10T03:02:31.092Z,27.43
2024-03-10T03:03:05.530Z,26.50
2024-03-10T03:03:37.487Z,26.40
2024-03-10T03:04:10.732Z,26.33
2024-03-10T03:04:42.722Z,26.37
2024-03-10T03:05:19.108Z,26.53
2024-03-10T03:05:51.230Z,26.97
2024-03-10T03:06:23.504Z,27.03
2024-03-10T03:06:56.031Z,26.37
2024-03-10T03:07:27.934Z,26.93
2024-03-10T03:08:01.194Z,26.60
2024-03-10T03:08:33.258Z,27.07
2024-03-10T03:09:06.792Z,26.80
2024-03-10T03:09:42.317Z,25.40
2024-03-10T03:10:14.308Z,27.43
2024-03-10T03:10:46.270Z,26.30
2024-03-10T03:11:18.273Z,24.97
2024-03-10T03:11:50.454Z,26.20
2024-03-10T03:12:22.439Z,26.47
2024-03-10T03:12:54.625Z,26.67
2024-03-10T03:13:27.454Z,27.17
2024-03-10T03:13:59.422Z,26.93
2024-03-10T03:14:31.510Z,25.43
2024-03-10T03:15:05.287Z,25.77
2024-03-10T03:15:37.190Z,26.77
2024-03-10T03:16:11.175Z,26.67
2024-03-10T03:16:43.920Z,26.90
2024-03-10T03:17:15.899Z,25.80
2024-03-10T03:17:47.870Z,25.83
2024-03-10T03:18:19.844Z,24.67
2024-03-10T03:18:52.215Z,25.50
2024-03-10T03:19:24.200Z,26.57
2024-03-10T03:19:56.161Z,25.40
2024-03-10T03:20:28.593Z,26.33
2024-03-10T03:21:00.787Z,26.93
2024-03-10T03:21:34.611Z,27.13
2024-03-10T03:22:08.025Z,26.13
2024-03-10T03:22:42.410Z,25.60
2024-03-10T03:23:14.363Z,26.43
2024-03-10T03:23:46.308Z,27.93
2024-03-10T03:24:18.203Z,27.83
2024-03-10T03:24:50.175Z,27.83
2024-03-10T03:25:22.209Z,27.90
2024-03-10T03:25:54.713Z,27.70
2024-03-10T03:26:27.875Z,28.00
2024-03-10T03:27:00.029Z,27.87
2024-03-10T03:27:31.952Z,27.83
2024-03-10T03:28:04.008Z,27.40
2024-03-10T03:28:35.959Z,29.07
2024-03-10T03:29:08.383Z,28.43
2024-03-10T03:29:40.331Z,27.87
2024-03-10T03:30:12.322Z,26.60
2024-03-10T03:30:44.228Z,26.83
2024-03-10T03:31:17.912Z,28.23
2024-03-10T03:31:49.872Z,27.57
2024-03-10T03:32:23.037Z,27.73
2024-03-10T03:32:56.112Z,26.47
2024-03-10T03:33:28.124Z,27.27
2024-03-10T03:34:00.057Z,27.93
2024-03-10T03:34:32.057Z,27.77
2024-03-10T03:35:04.367Z,28.43
2024-03-10T03:35:39.093Z,27.93
2024-03-10T03:36:11.051Z,27.67
2024-03-10T03:36:43.237Z,28.73
2024-03-10T03:37:15.198Z,27.93
2024-03-10T03:37:48.016Z,28.40
2024-03-10T03:38:20.425Z,27.67
2024-03-10T03:38:55.107Z,28.40
2024-03-10T03:39:27.633Z,29.20
2024-03-10T03:39:59.614Z,28.80
2024-03-10T03:40:31.557Z,29.03
2024-03-10T03:41:04.026Z,29.03
2024-03-10T03:41:36.356Z,30.10
2024-03-10T03:42:08.454Z,30.83
2024-03-10T03:42:40.889Z,30.30
2024-03-10T03:43:12.806Z,28.83
2024-03-10T03:43:45.077Z,29.20
2024-03-10T03:44:17.042Z,28.73
2024-03-10T03:44:51.060Z,29.27
2024-03-10T03:45:25.636Z,29.87
2024-03-10T03:45:57.540Z,28.47
2024-03-10T03:46:30.115Z,27.80
2024-03-10T03:47:02.149Z,28.33
2024-03-10T03:47:34.620Z,29.60
2024-03-10T03:48:06.893Z,29.40
2024-03-10T03:48:38.939Z,28.13
2024-03-10T03:49:10.857Z,28.83
2024-03-10T03:49:44.763Z,29.53
2024-03-10T03:50:16.822Z,28.13
2024-03-10T03:50:48.772Z,28.57
2024-03-10T03:51:20.702Z,28.70
2024-03-10T03:51:52.635Z,28.33
2024-03-10T03:52:25.037Z,28.23
2024-03-10T03:52:57.036Z,28.80
2024-03-10T03:53:29.038Z,28.67
2024-03-10T03:54:00.996Z,28.33
2024-03-10T03:54:33.075Z,28.17
2024-03-10T03:55:05.273Z,28.13
2024-03-10T03:55:38.521Z,28.57
2024-03-10T03:56:11.329Z,28.33
2024-03-10T03:56:43.300Z,29.33
2024-03-10T03:57:15.238Z,28.80
2024-03-10T03:57:47.176Z,29.10
2024-03-10T03:58:19.215Z,27.40
2024-03-10T03:58:51.230Z,27.23
2024-03-10T03:59:23.245Z,28.43
2024-03-10T03:59:55.181Z,27.73
2024-03-10T04:00:27.605Z,28.63
2024-03-10T04:00:59.588Z,29.50
2024-03-10T04:01:31.618Z,27.97
2024-03-10T04:02:04.950Z,27.80
2024-03-10T04:02:36.903Z,28.23
2024-03-10T04:03:11.060Z,28.40
2024-03-10T04:03:43.900Z,29.30
2024-03-10T04:04:15.823Z,29.30
2024-03-10T04:04:47.782Z,27.63
2024-03-10T04:05:19.814Z,27.37
2024-03-10T04:05:53.898Z,27.90
2024-03-10T04:06:25.821Z,28.10
2024-03-10T04:06:58.141Z,29.13
2024-03-10T04:07:30.141Z,28.90
2024-03-10T04:08:02.104Z,27.63
2024-03-10T04:08:34.122Z,28.53
2024-03-10T04:09:06.130Z,28.67
2024-03-10T04:09:38.231Z,28.47
2024-03-10T04:10:11.031Z,27.87
2024-03-10T04:10:43.033Z,28.67
2024-03-10T04:11:15.057Z,29.93
2024-03-10T04:11:47.121Z,28.87
2024-03-10T04:12:19.506Z,29.20
2024-03-10T04:12:51.670Z,29.50
2024-03-10T04:13:23.611Z,28.77
2024-03-10T04:13:56.169Z,29.03
2024-03-10T04:14:28.247Z,28.30
2024-03-10T04:15:00.415Z,29.60
2024-03-10T04:15:32.390Z,28.63
2024-03-10T04:16:07.453Z,28.20
2024-03-10T04:16:40.097Z,28.80
2024-03-10T04:17:12.044Z,29.13
2024-03-10T04:17:47.700Z,29.10
2024-03-10T04:18:19.919Z,29.57
2024-03-10T04:18:51.876Z,30.03
2024-03-10T04:19:23.842Z,29.33
2024-03-10T04:19:55.825Z,28.23
2024-03-10T04:20:27.887Z,28.37
2024-03-10T04:21:01.664Z,29.27
2024-03-10T04:21:34.764Z,29.33
2024-03-10T04:22:11.735Z,29.60
2024-03-10T04:22:44.203Z,30.63
2024-03-10T04:23:16.203Z,29.67
2024-03-10T04:23:48.144Z,28.47
2024-03-10T04:24:23.023Z,28.97
2024-03-10T04:24:56.328Z,28.07
2024-03-10T04:25:28.350Z,28.53
2024-03-10T04:26:00.453Z,28.40
2024-03-10T04:26:32.875Z,29.00
2024-03-10T04:27:04.994Z,29.30
2024-03-10T04:27:37.168Z,28.97
2024-03-10T04:28:09.217Z,28.47
2024-03-10T04:28:41.122Z,29.13
2024-03-10T04:29:13.285Z,30.20
2024-03-10T04:29:46.635Z,30.03
2024-03-10T04:30:20.466Z,28.97
2024-03-10T04:30:52.465Z,29.30
2024-03-10T04:31:25.143Z,30.00
2024-03-10T04:31:57.132Z,28.13
2024-03-10T04:32:31.081Z,28.47
2024-03-10T04:33:03.526Z,29.60
2024-03-10T04:33:36.253Z,29.37
2024-03-10T04:34:10.028Z,28.87
2024-03-10T04:34:41.935Z,29.43
2024-03-10T04:35:13.959Z,29.70
2024-03-10T04:35:46.061Z,29.70
2024-03-10T04:36:18.529Z,28.47
2024-03-10T04:36:51.501Z,28.33
2024-03-10T04:37:23.655Z,29.83
2024-03-10T04:37:55.625Z,29.47
2024-03-10T04:38:27.772Z,28.97
2024-03-10T04:39:00.957Z,29.13
2024-03-10T04:39:32.922Z,29.30
2024-03-10T04:40:07.457Z,28.37
2024-03-10T04:40:39.387Z,29.30
2024-03-10T04:41:11.767Z,28.90
2024-03-10T04:41:43.777Z,28.73
2024-03-10T04:42:16.768Z,27.60
2024-03-10T04:42:48.697Z,28.37
2024-03-10T04:43:23.553Z,27.67
2024-03-10T04:43:56.031Z,28.63
2024-03-10T04:44:28.010Z,28.10
2024-03-10T04:45:00.381Z,28.73
2024-03-10T04:45:32.312Z,27.37
2024-03-10T04:46:04.718Z,28.07
2024-03-10T04:46:37.565Z,28.97
2024-03-10T04:47:09.591Z,29.00
2024-03-10T04:47:41.626Z,29.20
2024-03-10T04:48:13.678Z,28.43
2024-03-10T04:48:47.791Z,29.10
2024-03-10T04:49:19.806Z,29.67
2024-03-10T04:49:51.800Z,29.30
2024-03-10T04:50:23.768Z,28.73
2024-03-10T04:50:55.688Z,29.53
2024-03-10T04:51:27.651Z,30.23
2024-03-10T04:51:59.941Z,29.47
2024-03-10T04:52:32.379Z,28.23
2024-03-10T04:53:04.461Z,28.83
2024-03-10T04:53:36.549Z,28.77
2024-03-10T04:54:11.173Z,29.00
2024-03-10T04:54:43.092Z,29.63
2024-03-10T04:55:15.053Z,29.93
2024-03-10T04:55:46.990Z,28.17
2024-03-10T04:56:19.202Z,29.57
2024-03-10T04:56:51.208Z,30.27
2024-03-10T04:57:26.268Z,30.80
2024-03-10T04:57:58.189Z,29.73
2024-03-10T04:58:30.352Z,29.33
2024-03-10T04:59:05.140Z,29.20
2024-03-10T04:59:37.143Z,28.70
2024-03-10T05:00:11.858Z,28.57
2024-03-10T05:00:43.880Z,29.50
2024-03-10T05:01:17.849Z,29.60
2024-03-10T05:01:55.240Z,29.03
2024-03-10T05:02:27.455Z,29.93
2024-03-10T05:03:00.547Z,29.83
2024-03-10T05:03:32.489Z,30.17
2024-03-10T05:04:04.542Z,27.77
2024-03-10T05:04:36.445Z,29.17
2024-03-10T05:05:09.186Z,29.77
2024-03-10T05:05:41.213Z,29.07
2024-03-10T05:06:13.136Z,28.07
2024-03-10T05:06:45.095Z,29.37
2024-03-10T05:07:17.034Z,29.80
2024-03-10T05:07:52.615Z,30.87
2024-03-10T05:08:25.362Z,30.10
2024-03-10T05:08:57.304Z,28.83
2024-03-10T05:09:29.228Z,28.47
2024-03-10T05:10:01.217Z,29.60
2024-03-10T05:10:33.214Z,28.20
2024-03-10T05:11:05.383Z,30.27
2024-03-10T05:11:37.677Z,31.07
2024-03-10T05:12:14.030Z,30.13
2024-03-10T05:12:46.331Z,30.47
2024-03-10T05:13:18.257Z,29.40
2024-03-10T05:13:50.254Z,29.10
2024-03-10T05:14:22.375Z,28.17
2024-03-10T05:14:54.329Z,28.57
2024-03-10T05:15:27.259Z,28.83
2024-03-10T05:15:59.284Z,28.10
2024-03-10T05:16:31.248Z,28.83
2024-03-10T05:17:04.039Z,29.27
2024-03-10T05:17:36.165Z,29.10
2024-03-10T05:18:09.324Z,28.67
2024-03-10T05:18:41.983Z,27.97
2024-03-10T05:19:13.909Z,28.23
2024-03-10T05:19:46.360Z,28.67
2024-03-10T05:20:24.641Z,28.37
2024-03-10T05:20:56.609Z,29.30
2024-03-10T05:21:28.619Z,28.60
2024-03-10T05:22:01.494Z,27.33
2024-03-10T05:22:36.228Z,28.37
2024-03-10T05:23:08.223Z,30.10
2024-03-10T05:23:40.465Z,28.13
2024-03-10T05:24:12.421Z,27.60
2024-03-10T05:24:44.644Z,27.50
2024-03-10T05:25:16.874Z,27.67
2024-03-10T05:25:48.860Z,28.80
2024-03-10T05:26:21.214Z,29.20
2024-03-10T05:26:53.865Z,27.37
2024-03-10T05:27:25.777Z,28.17
2024-03-10T05:27:57.736Z,28.70
2024-03-10T05:28:29.662Z,27.53
2024-03-10T05:29:01.929Z,28.03
2024-03-10T05:29:33.968Z,27.50
2024-03-10T05:30:06.367Z,28.03
2024-03-10T05:30:38.949Z,28.00
2024-03-10T05:31:31.735Z,28.47
2024-03-10T05:32:05.697Z,27.13
2024-03-10T05:32:38.500Z,27.00
2024-03-10T05:33:10.538Z,26.80
2024-03-10T05:33:42.474Z,25.50
2024-03-10T05:34:14.414Z,26.50
2024-03-10T05:34:47.843Z,27.27
2024-03-10T05:35:20.068Z,27.83
2024-03-10T05:35:52.050Z,27.50
2024-03-10T05:36:23.981Z,26.87
2024-03-10T05:36:55.911Z,27.53
2024-03-10T05:37:27.808Z,27.33
2024-03-10T05:37:59.755Z,27.60
2024-03-10T05:38:31.845Z,27.63
2024-03-10T05:39:03.902Z,26.97
2024-03-10T05:39:35.911Z,27.40
2024-03-10T05:40:09.207Z,28.33
2024-03-10T05:40:41.127Z,27.03
2024-03-10T05:41:13.676Z,26.67
2024-03-10T05:41:45.731Z,26.33
2024-03-10T05:42:17.729Z,27.30
2024-03-10T05:42:49.667Z,29.00
2024-03-10T05:43:21.697Z,27.67
2024-03-10T05:43:53.670Z,28.23
2024-03-10T05:44:25.714Z,28.43
2024-03-10T05:45:00.193Z,28.10
2024-03-10T05:45:33.630Z,28.13
2024-03-10T05:46:05.652Z,26.47
2024-03-10T05:46:37.618Z,26.33
2024-03-10T05:47:10.258Z,27.43
2024-03-10T05:47:42.344Z,27.17
2024-03-10T05:48:16.384Z,25.73
2024-03-10T05:48:48.957Z,27.13
2024-03-10T05:49:21.049Z,27.23
2024-03-10T05:49:53.333Z,28.13
2024-03-10T05:50:25.319Z,27.97
2024-03-10T05:50:57.274Z,28.47
2024-03-10T05:51:29.273Z,28.30
2024-03-10T05:52:01.259Z,27.50
2024-03-10T05:52:33.227Z,27.27
2024-03-10T05:53:05.215Z,28.27
2024-03-10T05:53:37.704Z,27.73
2024-03-10T05:54:09.632Z,27.73
2024-03-10T05:54:41.627Z,27.33
2024-03-10T05:55:13.818Z,28.60
2024-03-10T05:55:46.960Z,27.53
2024-03-10T05:56:18.969Z,28.33
2024-03-10T05:56:50.902Z,28.67
2024-03-10T05:57:22.887Z,28.97
2024-03-10T05:57:54.901Z,29.20
2024-03-10T05:58:26.820Z,29.67
2024-03-10T05:59:00.420Z,29.50
2024-03-10T05:59:32.553Z,28.70
2024-03-10T06:00:07.355Z,28.13
2024-03-10T06:00:39.741Z,29.53
2024-03-10T06:01:13.356Z,29.77
2024-03-10T06:01:48.449Z,28.07
2024-03-10T06:02:20.492Z,28.50
2024-03-10T06:02:53.574Z,28.73
2024-03-10T06:03:25.575Z,30.57
2024-03-10T06:03:57.494Z,30.33
2024-03-10T06:04:31.489Z,29.30
2024-03-10T06:05:04.074Z,27.83
2024-03-10T06:05:36.173Z,28.83
2024-03-10T06:06:10.581Z,28.80
2024-03-10T06:06:42.510Z,28.53
2024-03-10T06:07:14.428Z,29.07
2024-03-10T06:07:46.725Z,29.60
2024-03-10T06:08:18.792Z,30.07
2024-03-10T06:08:50.731Z,30.63
2024-03-10T06:09:22.859Z,29.27
2024-03-10T06:09:54.779Z,29.10
2024-03-10T06:10:27.652Z,27.83
2024-03-10T06:11:00.737Z,29.23
2024-03-10T06:11:36.106Z,28.50
2024-03-10T06:12:08.403Z,28.50
2024-03-10T06:12:40.742Z,28.70
2024-03-10T06:13:14.697Z,29.13
2024-03-10T06:13:46.828Z,28.87
2024-03-10T06:14:18.803Z,28.53
2024-03-10T06:14:50.788Z,28.53
2024-03-10T06:15:22.704Z,28.60
2024-03-10T06:15:54.648Z,28.60
2024-03-10T06:16:29.833Z,29.87
2024-03-10T06:17:03.020Z,30.40
2024-03-10T06:17:35.205Z,29.00
2024-03-10T06:18:17.286Z,29.00
2024-03-10T06:18:58.579Z,29.33
2024-03-10T06:19:49.398Z,28.33
2024-03-10T06:20:39.785Z,28.50
2024-03-10T06:21:30.193Z,28.60
2024-03-10T06:22:20.932Z,28.47
2024-03-10T06:23:19.071Z,27.70
2024-03-10T06:24:09.715Z,28.17
2024-03-10T06:25:00.526Z,27.77
2024-03-10T06:25:32.436Z,28.20
2024-03-10T06:26:05.499Z,28.23
2024-03-10T06:26:37.534Z,28.13
2024-03-10T06:27:09.510Z,28.50
2024-03-10T06:27:43.469Z,28.40
2024-03-10T06:28:15.419Z,27.93
2024-03-10T06:28:48.550Z,28.47
2024-03-10T06:29:22.858Z,28.93
2024-03-10T06:29:55.183Z,29.07
2024-03-10T06:30:27.110Z,28.50
2024-03-10T06:31:00.151Z,27.93
2024-03-10T06:31:33.330Z,26.97
2024-03-10T06:32:05.619Z,28.03
2024-03-10T06:32:39.066Z,28.37
2024-03-10T06:33:13.858Z,29.23
2024-03-10T06:33:46.156Z,29.53
2024-03-10T06:34:23.436Z,28.97
2024-03-10T06:34:55.804Z,29.00
2024-03-10T06:35:27.935Z,29.00
2024-03-10T06:35:59.973Z,28.93
2024-03-10T06:36:31.893Z,29.57
2024-03-10T06:37:03.940Z,28.93
2024-03-10T06:37:35.886Z,28.83
2024-03-10T06:38:08.590Z,28.23
2024-03-10T06:38:43.403Z,28.30
2024-03-10T06:39:20.480Z,29.23
2024-03-10T06:39:52.641Z,30.27
2024-03-10T06:40:24.577Z,30.53
2024-03-10T06:40:56.748Z,30.73
2024-03-10T06:41:29.329Z,29.33
2024-03-10T06:42:01.999Z,29.77
2024-03-10T06:42:34.044Z,30.17
2024-03-10T06:43:05.972Z,29.63
2024-03-10T06:43:38.833Z,29.80
2024-03-10T06:44:10.816Z,30.23
2024-03-10T06:44:44.132Z,30.50
2024-03-10T06:45:16.067Z,29.63
2024-03-10T06:45:48.019Z,28.93
2024-03-10T06:46:19.970Z,29.73
2024-03-10T06:46:52.023Z,30.90
2024-03-10T06:47:24.058Z,30.00
2024-03-10T06:47:56.138Z,29.57
2024-03-10T06:48:28.289Z,29.50
2024-03-10T06:49:00.346Z,30.37
2024-03-10T06:49:32.258Z,29.20
2024-03-10T06:50:06.239Z,29.63
2024-03-10T06:50:40.707Z,29.57
2024-03-10T06:51:12.745Z,29.73
2024-03-10T06:51:46.158Z,30.67
2024-03-10T06:52:18.120Z,31.07
2024-03-10T06:52:50.040Z,30.60
2024-03-10T06:53:22.354Z,30.53
2024-03-10T06:53:55.144Z,28.90
2024-03-10T06:54:27.132Z,28.73
2024-03-10T06:54:59.306Z,30.53
2024-03-10T06:55:31.208Z,31.23
2024-03-10T06:56:04.530Z,30.17
2024-03-10T06:56:37.876Z,30.67
2024-03-10T06:57:09.866Z,30.97
2024-03-10T06:57:41.938Z,30.17
2024-03-10T06:58:14.012Z,29.93
2024-03-10T06:58:49.595Z,30.50
2024-03-10T06:59:24.079Z,30.63
2024-03-10T06:59:56.252Z,31.17
2024-03-10T07:00:28.283Z,30.57
2024-03-10T07:01:00.229Z,31.47
2024-03-10T07:01:32.396Z,32.47
2024-03-10T07:02:06.138Z,30.60
2024-03-10T07:02:41.771Z,32.47
2024-03-10T07:03:15.581Z,31.43
2024-03-10T07:03:47.600Z,32.30
2024-03-10T07:04:19.892Z,32.00
2024-03-10T07:04:51.908Z,31.00
2024-03-10T07:05:26.049Z,29.90
2024-03-10T07:06:01.755Z,29.60
2024-03-10T07:06:33.835Z,31.00
2024-03-10T07:07:06.135Z,31.47
2024-03-10T07:07:38.962Z,32.37
2024-03-10T07:08:12.470Z,30.97
2024-03-10T07:08:44.489Z,30.43
2024-03-10T07:09:16.995Z,29.27
2024-03-10T07:09:48.916Z,30.53
2024-03-10T07:10:20.849Z,31.03